Waterville, WA (98858)

8:36 AM PDT on September 02, 2015 (GMT -0700)
RAWS | | Change Station
CLOSE
Current Station
Personal Weather Station
Location: Waterville, WA
Elevation: 2529 ft
Nearby Weather Stations

Elev 2529 ft 47.62 °N, 119.90 °W | Updated 48 minutes ago

Partly Cloudy
Partly Cloudy
56.0 °F
Feels Like 56.0 °F
N
7.0
Wind Variable Wind from WSW
Gusts 12.0 mph

Today
High -- | Low -- °F
--% Chance of Precip.
Yesterday
High -- | Low -- °F
Precip. -- in
6:19 AM 7:38 PM
Waning Gibbous, 79% visible
Pressure 29.76 in
Visibility 10.0 miles
Clouds Clear
Dew Point 41.0 °F
Humidity 57%
Rainfall in
Snow Depth Not available.
UV 1 out of 12
Pollen 4.10 out of 12
Air Quality Not available.
Flu Activity Not available.
METAR KEAT 021455Z AUTO 31013KT 10SM CLR 16/06 A2977 RMK AO2 SLP077 T01610061 52015
Pressure 29.76 in
Visibility 10.0 miles
Clouds Clear
Dew Point 41.0 °F
Humidity 57%
Rainfall in
Snow Depth Not available.
UV 1 out of 12
Pollen 4.10 out of 12
Air Quality Not available.
Flu Activity Not available.
METAR KEAT 021455Z AUTO 31013KT 10SM CLR 16/06 A2977 RMK AO2 SLP077 T01610061 52015

10-Day Weather Forecast

×

Almanac

Astronomy

Sep. 02, 2015 Rise Set
Actual Time
Civil Twilight
Nautical Twilight
Astronomical Twilight
Moon
Length of Visible Light
Length of Day
Tomorrow will be .
, % of the Moon is Illuminated

Today's Extremes

State Highs State Lows

Community

WunderPhotos

Upload Photos

1,851,773 photos uploaded!

WunderBlogs® & News

Nearby

Air Quality

  Air Quality AQ Index Pollutant
Not available.

Snow Depth

Station Depth Elevation

Earthquake Activity

City Distance Mag. Time & Date
Minimum magnitude displayed is 2.5.

Coastal Water Temperatures

Place Temperature

Stations

Nearby Weather Stations

Station Location Temp. Windchill Dew Point Humidity Wind Precip. Elev Updated Type